createdAt,value
2023-05-02T00:01:34.774Z,7.50
2023-05-02T00:06:34.723Z,7.30
2023-05-02T00:11:34.654Z,7.10
2023-05-02T00:16:34.594Z,7.80
2023-05-02T00:21:34.627Z,7.80
2023-05-02T00:26:34.436Z,8.00
2023-05-02T00:31:34.464Z,8.40
2023-05-02T00:36:34.299Z,8.60
2023-05-02T00:41:34.285Z,8.10
2023-05-02T00:46:34.210Z,7.50
2023-05-02T00:51:34.103Z,7.80
2023-05-02T00:56:34.038Z,8.10
2023-05-02T01:01:34.010Z,8.20
2023-05-02T01:06:33.983Z,9.20
2023-05-02T01:11:33.845Z,9.10
2023-05-02T01:16:33.862Z,8.40
2023-05-02T01:21:33.692Z,8.00
2023-05-02T01:26:33.623Z,8.40
2023-05-02T01:31:33.573Z,8.60
2023-05-02T01:36:33.496Z,8.80
2023-05-02T01:41:33.436Z,8.50
2023-05-02T01:46:33.438Z,8.10
2023-05-02T01:51:33.295Z,7.80
2023-05-02T01:56:33.228Z,7.70
2023-05-02T02:01:33.235Z,8.40
2023-05-02T02:06:33.168Z,7.70
2023-05-02T02:11:33.019Z,7.90
2023-05-02T02:16:32.972Z,8.20
2023-05-02T02:21:32.893Z,7.50
2023-05-02T02:26:32.829Z,8.70
2023-05-02T02:31:32.812Z,8.20
2023-05-02T02:36:32.687Z,8.40
2023-05-02T02:41:32.615Z,8.50
2023-05-02T02:46:32.604Z,8.30
2023-05-02T02:51:32.488Z,8.00
2023-05-02T02:56:32.416Z,8.60
2023-05-02T03:01:32.380Z,8.20
2023-05-02T03:06:32.291Z,8.20
2023-05-02T03:11:32.221Z,7.90
2023-05-02T03:16:32.333Z,7.90
2023-05-02T03:21:32.080Z,7.70
2023-05-02T03:26:32.037Z,7.60
2023-05-02T03:31:31.987Z,7.40
2023-05-02T03:36:31.876Z,7.50
2023-05-02T03:41:31.831Z,7.40
2023-05-02T03:46:31.759Z,6.90
2023-05-02T03:51:31.675Z,6.80
2023-05-02T03:56:31.600Z,6.90
2023-05-02T04:01:31.546Z,6.20
2023-05-02T04:06:31.536Z,6.60
2023-05-02T04:11:31.414Z,6.30
2023-05-02T04:16:31.391Z,6.10
2023-05-02T04:21:31.266Z,6.10
2023-05-02T04:26:31.206Z,6.10
2023-05-02T04:31:31.256Z,6.30
2023-05-02T04:36:31.064Z,6.20
2023-05-02T04:41:31.003Z,5.90
2023-05-02T04:46:30.944Z,5.80
2023-05-02T04:51:30.877Z,5.70
2023-05-02T04:56:30.816Z,5.70
2023-05-02T05:01:30.769Z,5.20
2023-05-02T05:06:30.701Z,5.40
2023-05-02T05:11:30.607Z,5.50
2023-05-02T05:16:30.577Z,5.20
2023-05-02T05:21:30.478Z,5.30
2023-05-02T05:26:30.407Z,5.40
2023-05-02T05:31:30.393Z,4.70
2023-05-02T05:36:30.262Z,4.80
2023-05-02T05:41:30.223Z,5.20
2023-05-02T05:46:30.172Z,4.90
2023-05-02T05:51:30.058Z,4.70
2023-05-02T05:56:29.991Z,4.70
2023-05-02T06:01:29.928Z,4.70
2023-05-02T06:06:29.941Z,4.50
2023-05-02T06:11:29.791Z,4.20
2023-05-02T06:16:30.520Z,3.90
2023-05-02T06:21:29.667Z,4.20
2023-05-02T06:26:29.596Z,4.00
2023-05-02T06:31:29.619Z,3.50
2023-05-02T06:36:29.485Z,4.20
2023-05-02T06:41:29.391Z,4.00
2023-05-02T06:46:29.337Z,3.60
2023-05-02T06:51:29.260Z,3.70
2023-05-02T06:56:29.188Z,3.80
2023-05-02T07:01:29.161Z,3.40
2023-05-02T07:06:29.097Z,3.60
2023-05-02T07:11:29.024Z,3.50
2023-05-02T07:16:29.023Z,3.30
2023-05-02T07:21:28.943Z,3.40
2023-05-02T07:26:28.863Z,3.30
2023-05-02T07:31:28.798Z,3.40
2023-05-02T07:36:28.771Z,3.20
2023-05-02T07:41:28.651Z,3.60
2023-05-02T07:46:28.642Z,3.70
2023-05-02T07:51:28.522Z,3.70
2023-05-02T07:56:28.441Z,3.70
2023-05-02T08:01:28.376Z,3.60
2023-05-02T08:06:28.360Z,3.80
2023-05-02T08:11:28.289Z,4.30
2023-05-02T08:16:28.221Z,4.20
2023-05-02T08:21:28.120Z,4.20
2023-05-02T08:26:28.048Z,4.00
2023-05-02T08:31:28.032Z,3.60
2023-05-02T08:36:27.917Z,3.80
2023-05-02T08:41:27.839Z,3.30
2023-05-02T08:46:27.861Z,3.70
2023-05-02T08:51:27.741Z,3.80
2023-05-02T08:56:27.640Z,3.50
2023-05-02T09:01:27.612Z,3.50
2023-05-02T09:06:27.567Z,3.30
2023-05-02T09:11:27.433Z,3.50
2023-05-02T09:16:27.637Z,2.60
2023-05-02T09:21:27.286Z,2.70
2023-05-02T09:26:28.846Z,3.40
2023-05-02T09:31:49.768Z,3.30
2023-05-02T09:36:28.112Z,3.60
2023-05-02T09:41:27.068Z,3.50
2023-05-02T09:46:27.051Z,4.60
2023-05-02T09:51:26.889Z,3.80
2023-05-02T09:56:26.850Z,3.60
2023-05-02T10:01:26.873Z,4.00
2023-05-02T10:06:26.711Z,5.10
2023-05-02T10:11:26.654Z,6.30
2023-05-02T10:16:26.738Z,5.10
2023-05-02T10:21:26.522Z,4.70
2023-05-02T10:26:26.451Z,4.90
2023-05-02T10:31:26.383Z,3.50
2023-05-02T10:36:26.326Z,5.90
2023-05-02T10:41:26.675Z,6.20
2023-05-02T10:46:26.188Z,5.10
2023-05-02T10:51:26.073Z,6.30
2023-05-02T10:56:28.462Z,6.40
2023-05-02T11:01:26.020Z,4.60
2023-05-02T11:06:25.928Z,5.60
2023-05-02T11:11:25.838Z,6.40
2023-05-02T11:16:25.797Z,8.30
2023-05-02T11:21:25.679Z,7.30
2023-05-02T11:26:25.606Z,6.60
2023-05-02T11:31:25.594Z,6.70
2023-05-02T11:36:25.478Z,6.20
2023-05-02T11:41:25.409Z,6.50
2023-05-02T11:46:25.357Z,7.70
2023-05-02T11:51:25.267Z,5.90
2023-05-02T11:56:25.216Z,5.10
2023-05-02T12:01:25.144Z,5.00
2023-05-02T12:06:25.098Z,5.50
2023-05-02T12:11:25.010Z,5.40
2023-05-02T12:16:24.989Z,6.50
2023-05-02T12:21:24.887Z,3.90
2023-05-02T12:26:24.840Z,6.40
2023-05-02T12:31:24.861Z,5.80
2023-05-02T12:36:24.679Z,6.70
2023-05-02T12:41:24.620Z,6.50
2023-05-02T12:46:24.579Z,5.50
2023-05-02T12:51:24.478Z,4.50
2023-05-02T12:56:24.423Z,4.50
2023-05-02T13:01:24.373Z,4.50
2023-05-02T13:06:24.318Z,5.10
2023-05-02T13:11:24.198Z,5.70
2023-05-02T13:16:24.305Z,6.30
2023-05-02T13:21:24.086Z,4.80
2023-05-02T13:26:24.009Z,4.90
2023-05-02T13:31:23.957Z,6.10
2023-05-02T13:36:23.884Z,6.30
2023-05-02T13:41:23.816Z,6.00
2023-05-02T13:46:23.929Z,6.40
2023-05-02T13:51:23.691Z,5.30
2023-05-02T13:56:23.648Z,7.30
2023-05-02T14:01:23.560Z,6.20
2023-05-02T14:06:23.592Z,7.50
2023-05-02T14:11:23.409Z,5.60
2023-05-02T14:16:23.461Z,5.30
2023-05-02T14:21:23.270Z,6.90
2023-05-02T14:26:23.242Z,7.20
2023-05-02T14:31:23.281Z,7.60
2023-05-02T14:36:23.188Z,7.20
2023-05-02T14:41:23.017Z,6.70
2023-05-02T14:46:23.070Z,6.30
2023-05-02T14:51:22.865Z,6.10
2023-05-02T14:56:22.817Z,7.10
2023-05-02T15:01:22.915Z,6.70
2023-05-02T15:06:22.805Z,5.60
2023-05-02T15:11:22.604Z,5.50
2023-05-02T15:16:22.562Z,4.90
2023-05-02T15:21:22.488Z,4.90
2023-05-02T15:26:22.417Z,4.60
2023-05-02T15:31:22.370Z,5.00
2023-05-02T15:36:22.279Z,4.70
2023-05-02T15:41:22.216Z,3.60
2023-05-02T15:46:22.311Z,3.90
2023-05-02T15:51:22.075Z,20.00
2023-05-02T15:56:22.015Z,2.80
2023-05-02T16:01:21.971Z,2.50
2023-05-02T16:06:21.907Z,2.40
2023-05-02T16:11:21.807Z,2.60
2023-05-02T16:16:21.792Z,2.20
2023-05-02T16:21:21.701Z,2.90
2023-05-02T16:26:21.616Z,3.20
2023-05-02T16:31:21.609Z,2.60
2023-05-02T16:36:21.557Z,2.40
2023-05-02T16:41:21.500Z,2.60
2023-05-02T16:46:21.385Z,3.10
2023-05-02T16:51:21.327Z,2.60
2023-05-02T16:56:21.348Z,2.60
2023-05-02T17:01:21.268Z,2.30
2023-05-02T17:06:21.163Z,2.80
2023-05-02T17:11:21.752Z,2.70
2023-05-02T17:16:21.536Z,3.00
2023-05-02T17:21:20.937Z,3.10
2023-05-02T17:26:21.341Z,3.10
2023-05-02T17:31:20.777Z,2.60
2023-05-02T17:36:21.733Z,3.00
2023-05-02T17:41:20.619Z,2.50
2023-05-02T17:46:20.910Z,2.50
2023-05-02T17:51:21.087Z,2.30
2023-05-02T17:56:20.492Z,2.10
2023-05-02T18:01:20.367Z,2.30
2023-05-02T18:06:20.405Z,2.40
2023-05-02T18:11:20.288Z,2.10
2023-05-02T18:16:20.182Z,2.10
2023-05-02T18:21:20.067Z,2.10
2023-05-02T18:26:20.021Z,1.80
2023-05-02T18:31:19.991Z,2.00
2023-05-02T18:36:19.916Z,2.10
2023-05-02T18:41:19.807Z,1.90
2023-05-02T18:46:19.815Z,2.20
2023-05-02T18:51:19.727Z,2.00
2023-05-02T18:56:19.600Z,2.20
2023-05-02T19:01:21.295Z,2.10
2023-05-02T19:06:19.977Z,2.00
2023-05-02T19:11:19.399Z,2.00
2023-05-02T19:16:19.365Z,2.00
2023-05-02T19:21:19.262Z,2.10
2023-05-02T19:26:19.211Z,2.10
2023-05-02T19:31:19.207Z,1.80
2023-05-02T19:36:19.076Z,2.10
2023-05-02T19:41:18.989Z,2.10
2023-05-02T19:46:18.985Z,2.10
2023-05-02T19:51:18.869Z,1.90
2023-05-02T19:56:18.830Z,2.30
2023-05-02T20:01:18.788Z,2.20
2023-05-02T20:06:18.750Z,2.00
2023-05-02T20:11:18.671Z,2.10
2023-05-02T20:16:18.557Z,2.10
2023-05-02T20:21:18.448Z,2.30
2023-05-02T20:26:18.393Z,2.40
2023-05-02T20:31:18.323Z,2.60
2023-05-02T20:36:18.258Z,2.80
2023-05-02T20:41:18.175Z,2.70
2023-05-02T20:46:18.166Z,3.20
2023-05-02T20:51:18.052Z,2.80
2023-05-02T20:56:18.030Z,3.10
2023-05-02T21:01:18.017Z,2.70
2023-05-02T21:06:17.928Z,3.30
2023-05-02T21:11:17.873Z,2.70
2023-05-02T21:16:17.869Z,3.20
2023-05-02T21:21:17.773Z,3.20
2023-05-02T21:26:17.686Z,3.20
2023-05-02T21:31:17.624Z,3.40
2023-05-02T21:36:17.512Z,3.60
2023-05-02T21:41:17.458Z,3.30
2023-05-02T21:46:17.446Z,3.50
2023-05-02T21:51:17.324Z,3.40
2023-05-02T21:56:17.224Z,3.00
2023-05-02T22:01:17.239Z,3.30
2023-05-02T22:06:17.139Z,3.30
2023-05-02T22:11:16.991Z,3.20
2023-05-02T22:16:16.961Z,3.60
2023-05-02T22:21:16.857Z,3.30
2023-05-02T22:26:16.846Z,3.40
2023-05-02T22:31:16.905Z,3.30
2023-05-02T22:36:16.669Z,3.60
2023-05-02T22:41:16.647Z,3.80
2023-05-02T22:46:16.534Z,3.90
2023-05-02T22:51:16.467Z,4.00
2023-05-02T22:56:16.415Z,3.70
2023-05-02T23:01:16.423Z,3.70
2023-05-02T23:06:16.292Z,3.50
2023-05-02T23:11:16.189Z,4.10
2023-05-02T23:16:16.142Z,3.70
2023-05-02T23:21:16.056Z,4.20
2023-05-02T23:26:15.964Z,3.70
2023-05-02T23:31:15.969Z,3.80
2023-05-02T23:36:15.833Z,3.80
2023-05-02T23:41:15.751Z,4.10
2023-05-02T23:46:15.758Z,4.00
2023-05-02T23:51:15.637Z,4.10
2023-05-02T23:56:15.563Z,3.80
